Terminal Aerodrome Forecast
Issued by NWS Omaha/Valley, NE

Home | Current Version | Previous Version | Text Only | Print | Product List | Glossary Off
Versions: 1 2 3 4 5 6 7 8 9 10 11 12 13 14 15 16 17 18

000
FTUS43 KOAX 181120
TAFOFK
TAF
KOFK 181120Z 1812/1912 18008KT P6SM BKN150
     FM182300 19008KT P6SM VCTS BKN200CB
     FM190100 16008KT P6SM BKN200
     FM190300 07009KT P6SM BKN200
     FM190500 06008KT P6SM SCT140=

USA.gov is the U.S. government's official web portal to all federal, state and local government web resources and services.